sensor_id;sensor_type;location;lat;lon;timestamp;temperature;humidity
17364;DHT22;8799;43.594;13.526;2022-09-14T00:01:22;24.30;93.10
17364;DHT22;8799;43.594;13.526;2022-09-14T00:03:51;24.20;93.20
17364;DHT22;8799;43.594;13.526;2022-09-14T00:06:19;24.30;93.10
17364;DHT22;8799;43.594;13.526;2022-09-14T00:08:49;24.30;92.90
17364;DHT22;8799;43.594;13.526;2022-09-14T00:11:18;24.30;92.80
17364;DHT22;8799;43.594;13.526;2022-09-14T00:13:47;24.30;92.70
17364;DHT22;8799;43.594;13.526;2022-09-14T00:16:18;24.30;92.70
17364;DHT22;8799;43.594;13.526;2022-09-14T00:18:51;24.30;92.50
17364;DHT22;8799;43.594;13.526;2022-09-14T00:21:20;24.30;92.40
17364;DHT22;8799;43.594;13.526;2022-09-14T00:23:48;24.30;92.20
17364;DHT22;8799;43.594;13.526;2022-09-14T00:26:18;24.30;92.00
17364;DHT22;8799;43.594;13.526;2022-09-14T00:28:48;24.30;92.00
17364;DHT22;8799;43.594;13.526;2022-09-14T00:31:17;24.30;91.70
17364;DHT22;8799;43.594;13.526;2022-09-14T00:33:47;24.30;91.40
17364;DHT22;8799;43.594;13.526;2022-09-14T00:36:19;24.20;91.40
17364;DHT22;8799;43.594;13.526;2022-09-14T00:38:47;24.30;91.70
17364;DHT22;8799;43.594;13.526;2022-09-14T00:41:17;24.30;91.50
17364;DHT22;8799;43.594;13.526;2022-09-14T00:43:55;24.30;91.10
17364;DHT22;8799;43.594;13.526;2022-09-14T00:46:24;24.30;91.30
17364;DHT22;8799;43.594;13.526;2022-09-14T00:48:52;24.30;91.40
17364;DHT22;8799;43.594;13.526;2022-09-14T00:51:24;24.20;91.30
17364;DHT22;8799;43.594;13.526;2022-09-14T00:53:52;24.30;91.30
17364;DHT22;8799;43.594;13.526;2022-09-14T00:56:20;24.30;91.30
17364;DHT22;8799;43.594;13.526;2022-09-14T00:58:50;24.30;91.40
17364;DHT22;8799;43.594;13.526;2022-09-14T01:01:20;24.30;91.20
17364;DHT22;8799;43.594;13.526;2022-09-14T01:03:48;24.30;91.30
17364;DHT22;8799;43.594;13.526;2022-09-14T01:06:21;24.30;91.20
17364;DHT22;8799;43.594;13.526;2022-09-14T01:09:11;24.20;90.90
17364;DHT22;8799;43.594;13.526;2022-09-14T01:11:55;24.30;91.00
17364;DHT22;8799;43.594;13.526;2022-09-14T01:14:32;24.30;91.20
17364;DHT22;8799;43.594;13.526;2022-09-14T01:17:06;24.30;91.20
17364;DHT22;8799;43.594;13.526;2022-09-14T01:20:02;24.30;91.20
17364;DHT22;8799;43.594;13.526;2022-09-14T01:22:35;24.30;91.10
17364;DHT22;8799;43.594;13.526;2022-09-14T01:25:14;24.30;91.10
17364;DHT22;8799;43.594;13.526;2022-09-14T01:27:48;24.30;91.00
17364;DHT22;8799;43.594;13.526;2022-09-14T01:30:19;24.30;90.80
17364;DHT22;8799;43.594;13.526;2022-09-14T01:32:51;24.30;90.80
17364;DHT22;8799;43.594;13.526;2022-09-14T01:35:25;24.30;90.70
17364;DHT22;8799;43.594;13.526;2022-09-14T01:37:58;24.30;90.70
17364;DHT22;8799;43.594;13.526;2022-09-14T01:40:29;24.20;90.60
17364;DHT22;8799;43.594;13.526;2022-09-14T01:43:03;24.30;90.70
17364;DHT22;8799;43.594;13.526;2022-09-14T01:45:33;24.30;90.60
17364;DHT22;8799;43.594;13.526;2022-09-14T01:48:06;24.30;90.80
17364;DHT22;8799;43.594;13.526;2022-09-14T01:50:38;24.30;90.80
17364;DHT22;8799;43.594;13.526;2022-09-14T01:53:10;24.30;90.70
17364;DHT22;8799;43.594;13.526;2022-09-14T01:55:42;24.30;90.60
17364;DHT22;8799;43.594;13.526;2022-09-14T01:58:19;24.30;90.60
17364;DHT22;8799;43.594;13.526;2022-09-14T02:00:50;24.30;90.70
17364;DHT22;8799;43.594;13.526;2022-09-14T02:03:22;24.30;90.50
17364;DHT22;8799;43.594;13.526;2022-09-14T02:05:56;24.30;90.50
17364;DHT22;8799;43.594;13.526;2022-09-14T02:08:27;24.30;90.50
17364;DHT22;8799;43.594;13.526;2022-09-14T02:10:57;24.30;90.50
17364;DHT22;8799;43.594;13.526;2022-09-14T02:13:27;24.30;90.50
17364;DHT22;8799;43.594;13.526;2022-09-14T02:15:54;24.30;90.50
17364;DHT22;8799;43.594;13.526;2022-09-14T02:18:22;24.30;90.50
17364;DHT22;8799;43.594;13.526;2022-09-14T02:20:54;24.30;90.60
17364;DHT22;8799;43.594;13.526;2022-09-14T02:23:23;24.30;90.50
17364;DHT22;8799;43.594;13.526;2022-09-14T02:25:51;24.30;90.40
17364;DHT22;8799;43.594;13.526;2022-09-14T02:28:19;24.30;90.50
17364;DHT22;8799;43.594;13.526;2022-09-14T02:30:59;24.30;90.50
17364;DHT22;8799;43.594;13.526;2022-09-14T02:33:37;24.30;90.50
17364;DHT22;8799;43.594;13.526;2022-09-14T02:36:12;24.30;90.50
17364;DHT22;8799;43.594;13.526;2022-09-14T02:38:47;24.30;90.40
17364;DHT22;8799;43.594;13.526;2022-09-14T02:41:22;24.30;90.30
17364;DHT22;8799;43.594;13.526;2022-09-14T02:43:57;24.30;90.40
17364;DHT22;8799;43.594;13.526;2022-09-14T02:46:34;24.30;90.40
17364;DHT22;8799;43.594;13.526;2022-09-14T02:49:08;24.30;90.40
17364;DHT22;8799;43.594;13.526;2022-09-14T02:51:42;24.20;89.90
17364;DHT22;8799;43.594;13.526;2022-09-14T02:54:15;24.20;90.00
17364;DHT22;8799;43.594;13.526;2022-09-14T02:56:45;24.30;90.10
17364;DHT22;8799;43.594;13.526;2022-09-14T02:59:13;24.30;90.10
17364;DHT22;8799;43.594;13.526;2022-09-14T03:01:42;24.30;90.00
17364;DHT22;8799;43.594;13.526;2022-09-14T03:04:15;24.30;90.00
17364;DHT22;8799;43.594;13.526;2022-09-14T03:06:42;24.30;90.00
17364;DHT22;8799;43.594;13.526;2022-09-14T03:09:10;24.30;89.70
17364;DHT22;8799;43.594;13.526;2022-09-14T03:11:39;24.20;89.90
17364;DHT22;8799;43.594;13.526;2022-09-14T03:14:08;24.20;89.70
17364;DHT22;8799;43.594;13.526;2022-09-14T03:16:37;24.30;89.80
17364;DHT22;8799;43.594;13.526;2022-09-14T03:19:06;24.20;89.60
17364;DHT22;8799;43.594;13.526;2022-09-14T03:21:37;24.30;89.80
17364;DHT22;8799;43.594;13.526;2022-09-14T03:24:05;24.30;89.80
17364;DHT22;8799;43.594;13.526;2022-09-14T03:26:33;24.30;89.80
17364;DHT22;8799;43.594;13.526;2022-09-14T03:29:04;24.30;91.10
17364;DHT22;8799;43.594;13.526;2022-09-14T03:31:32;24.30;90.50
17364;DHT22;8799;43.594;13.526;2022-09-14T03:34:01;24.30;90.40
17364;DHT22;8799;43.594;13.526;2022-09-14T03:36:30;24.30;90.20
17364;DHT22;8799;43.594;13.526;2022-09-14T03:38:59;24.30;90.10
17364;DHT22;8799;43.594;13.526;2022-09-14T03:41:28;24.30;90.00
17364;DHT22;8799;43.594;13.526;2022-09-14T03:43:56;24.30;89.90
17364;DHT22;8799;43.594;13.526;2022-09-14T03:46:24;24.30;89.70
17364;DHT22;8799;43.594;13.526;2022-09-14T03:49:21;24.20;89.30
17364;DHT22;8799;43.594;13.526;2022-09-14T03:51:51;24.20;89.40
17364;DHT22;8799;43.594;13.526;2022-09-14T03:54:19;24.20;89.30
17364;DHT22;8799;43.594;13.526;2022-09-14T03:56:54;24.20;89.30
17364;DHT22;8799;43.594;13.526;2022-09-14T03:59:47;24.20;89.30
17364;DHT22;8799;43.594;13.526;2022-09-14T04:02:15;24.20;89.30
17364;DHT22;8799;43.594;13.526;2022-09-14T04:04:42;24.20;89.10
17364;DHT22;8799;43.594;13.526;2022-09-14T04:07:15;24.20;88.90
17364;DHT22;8799;43.594;13.526;2022-09-14T04:09:43;24.20;88.70
17364;DHT22;8799;43.594;13.526;2022-09-14T04:12:11;24.20;88.60
17364;DHT22;8799;43.594;13.526;2022-09-14T04:14:39;24.20;88.60
17364;DHT22;8799;43.594;13.526;2022-09-14T04:17:07;24.20;88.60
17364;DHT22;8799;43.594;13.526;2022-09-14T04:19:35;24.20;88.40
17364;DHT22;8799;43.594;13.526;2022-09-14T04:22:07;24.20;88.30
17364;DHT22;8799;43.594;13.526;2022-09-14T04:24:37;24.20;88.20
17364;DHT22;8799;43.594;13.526;2022-09-14T04:27:05;24.20;88.20
17364;DHT22;8799;43.594;13.526;2022-09-14T04:29:32;24.20;88.10
17364;DHT22;8799;43.594;13.526;2022-09-14T04:32:01;24.20;88.10
17364;DHT22;8799;43.594;13.526;2022-09-14T04:34:29;24.20;88.00
17364;DHT22;8799;43.594;13.526;2022-09-14T04:36:57;24.20;88.30
17364;DHT22;8799;43.594;13.526;2022-09-14T04:39:25;24.20;88.40
17364;DHT22;8799;43.594;13.526;2022-09-14T04:41:55;24.20;88.00
17364;DHT22;8799;43.594;13.526;2022-09-14T04:44:24;24.20;88.00
17364;DHT22;8799;43.594;13.526;2022-09-14T04:46:52;24.20;88.00
17364;DHT22;8799;43.594;13.526;2022-09-14T04:49:19;24.20;88.10
17364;DHT22;8799;43.594;13.526;2022-09-14T04:51:47;24.20;88.10
17364;DHT22;8799;43.594;13.526;2022-09-14T04:54:17;24.20;88.00
17364;DHT22;8799;43.594;13.526;2022-09-14T04:56:45;24.20;88.00
17364;DHT22;8799;43.594;13.526;2022-09-14T04:59:14;24.20;87.80
17364;DHT22;8799;43.594;13.526;2022-09-14T05:01:44;24.20;87.80
17364;DHT22;8799;43.594;13.526;2022-09-14T05:04:13;24.20;87.70
17364;DHT22;8799;43.594;13.526;2022-09-14T05:06:42;24.20;87.70
17364;DHT22;8799;43.594;13.526;2022-09-14T05:09:12;24.20;87.80
17364;DHT22;8799;43.594;13.526;2022-09-14T05:11:40;24.00;85.40
17364;DHT22;8799;43.594;13.526;2022-09-14T05:14:10;23.60;84.20
17364;DHT22;8799;43.594;13.526;2022-09-14T05:16:41;23.30;84.60
17364;DHT22;8799;43.594;13.526;2022-09-14T05:19:11;23.20;85.00
17364;DHT22;8799;43.594;13.526;2022-09-14T05:21:39;23.20;85.50
17364;DHT22;8799;43.594;13.526;2022-09-14T05:24:11;23.00;85.60
17364;DHT22;8799;43.594;13.526;2022-09-14T05:26:40;22.90;86.70
17364;DHT22;8799;43.594;13.526;2022-09-14T05:29:11;22.80;88.10
17364;DHT22;8799;43.594;13.526;2022-09-14T05:31:41;22.70;89.20
17364;DHT22;8799;43.594;13.526;2022-09-14T05:34:10;22.60;90.10
17364;DHT22;8799;43.594;13.526;2022-09-14T05:36:39;22.60;90.30
17364;DHT22;8799;43.594;13.526;2022-09-14T05:39:08;22.60;90.60
17364;DHT22;8799;43.594;13.526;2022-09-14T05:41:36;22.60;90.60
17364;DHT22;8799;43.594;13.526;2022-09-14T05:44:04;22.70;89.80
17364;DHT22;8799;43.594;13.526;2022-09-14T05:46:32;22.70;88.50
17364;DHT22;8799;43.594;13.526;2022-09-14T05:49:02;22.70;87.90
17364;DHT22;8799;43.594;13.526;2022-09-14T05:51:30;22.70;88.20
17364;DHT22;8799;43.594;13.526;2022-09-14T05:53:58;22.70;88.10
17364;DHT22;8799;43.594;13.526;2022-09-14T05:56:28;22.70;88.20
17364;DHT22;8799;43.594;13.526;2022-09-14T05:58:57;22.70;88.50
17364;DHT22;8799;43.594;13.526;2022-09-14T06:01:27;22.70;88.40
17364;DHT22;8799;43.594;13.526;2022-09-14T06:03:56;22.70;88.00
17364;DHT22;8799;43.594;13.526;2022-09-14T06:06:26;22.70;87.70
17364;DHT22;8799;43.594;13.526;2022-09-14T06:08:54;22.80;87.40
17364;DHT22;8799;43.594;13.526;2022-09-14T06:11:25;22.80;87.40
17364;DHT22;8799;43.594;13.526;2022-09-14T06:13:53;22.80;87.30
17364;DHT22;8799;43.594;13.526;2022-09-14T06:16:24;22.80;87.30
17364;DHT22;8799;43.594;13.526;2022-09-14T06:18:54;22.80;87.80
17364;DHT22;8799;43.594;13.526;2022-09-14T06:21:29;22.80;88.30
17364;DHT22;8799;43.594;13.526;2022-09-14T06:23:58;22.80;88.40
17364;DHT22;8799;43.594;13.526;2022-09-14T06:26:26;22.80;88.10
17364;DHT22;8799;43.594;13.526;2022-09-14T06:28:55;22.80;88.00
17364;DHT22;8799;43.594;13.526;2022-09-14T06:31:23;22.90;88.10
17364;DHT22;8799;43.594;13.526;2022-09-14T06:33:53;22.90;87.60
17364;DHT22;8799;43.594;13.526;2022-09-14T06:36:23;22.90;87.70
17364;DHT22;8799;43.594;13.526;2022-09-14T06:38:53;22.90;88.30
17364;DHT22;8799;43.594;13.526;2022-09-14T06:41:23;22.90;88.00
17364;DHT22;8799;43.594;13.526;2022-09-14T06:43:51;22.90;87.00
17364;DHT22;8799;43.594;13.526;2022-09-14T06:46:22;22.90;86.40
17364;DHT22;8799;43.594;13.526;2022-09-14T06:48:54;23.00;85.80
17364;DHT22;8799;43.594;13.526;2022-09-14T06:51:26;23.00;85.80
17364;DHT22;8799;43.594;13.526;2022-09-14T06:53:57;23.10;85.80
17364;DHT22;8799;43.594;13.526;2022-09-14T06:56:26;23.20;85.90
17364;DHT22;8799;43.594;13.526;2022-09-14T06:58:54;23.20;86.30
17364;DHT22;8799;43.594;13.526;2022-09-14T07:01:23;23.20;86.90
17364;DHT22;8799;43.594;13.526;2022-09-14T07:03:51;23.20;86.80
17364;DHT22;8799;43.594;13.526;2022-09-14T07:06:21;23.30;87.20
17364;DHT22;8799;43.594;13.526;2022-09-14T07:08:50;23.40;86.40
17364;DHT22;8799;43.594;13.526;2022-09-14T07:11:22;23.40;85.10
17364;DHT22;8799;43.594;13.526;2022-09-14T07:13:51;23.50;84.80
17364;DHT22;8799;43.594;13.526;2022-09-14T07:16:20;23.50;84.40
17364;DHT22;8799;43.594;13.526;2022-09-14T07:18:51;23.50;83.40
17364;DHT22;8799;43.594;13.526;2022-09-14T07:21:19;23.50;83.30
17364;DHT22;8799;43.594;13.526;2022-09-14T07:23:48;23.60;83.20
17364;DHT22;8799;43.594;13.526;2022-09-14T07:26:18;23.60;83.60
17364;DHT22;8799;43.594;13.526;2022-09-14T07:28:51;23.60;83.80
17364;DHT22;8799;43.594;13.526;2022-09-14T07:31:22;23.70;83.70
17364;DHT22;8799;43.594;13.526;2022-09-14T07:33:51;23.70;83.50
17364;DHT22;8799;43.594;13.526;2022-09-14T07:36:21;23.70;82.50
17364;DHT22;8799;43.594;13.526;2022-09-14T07:38:49;23.70;82.60
17364;DHT22;8799;43.594;13.526;2022-09-14T07:41:18;23.80;82.60
17364;DHT22;8799;43.594;13.526;2022-09-14T07:43:49;23.80;82.30
17364;DHT22;8799;43.594;13.526;2022-09-14T07:46:17;23.80;80.50
17364;DHT22;8799;43.594;13.526;2022-09-14T07:48:46;23.90;78.80
17364;DHT22;8799;43.594;13.526;2022-09-14T07:51:14;23.90;78.50
17364;DHT22;8799;43.594;13.526;2022-09-14T07:53:42;23.90;78.10
17364;DHT22;8799;43.594;13.526;2022-09-14T07:56:14;23.90;79.00
17364;DHT22;8799;43.594;13.526;2022-09-14T07:58:42;23.90;79.70
17364;DHT22;8799;43.594;13.526;2022-09-14T08:01:14;23.90;80.10
17364;DHT22;8799;43.594;13.526;2022-09-14T08:03:43;24.00;80.00
17364;DHT22;8799;43.594;13.526;2022-09-14T08:06:13;24.00;80.00
17364;DHT22;8799;43.594;13.526;2022-09-14T08:08:43;24.00;79.50
17364;DHT22;8799;43.594;13.526;2022-09-14T08:11:12;24.10;79.40
17364;DHT22;8799;43.594;13.526;2022-09-14T08:13:42;24.00;79.40
17364;DHT22;8799;43.594;13.526;2022-09-14T08:16:13;24.10;79.60
17364;DHT22;8799;43.594;13.526;2022-09-14T08:18:43;24.10;79.50
17364;DHT22;8799;43.594;13.526;2022-09-14T08:21:13;24.10;79.10
17364;DHT22;8799;43.594;13.526;2022-09-14T08:23:42;24.10;79.10
17364;DHT22;8799;43.594;13.526;2022-09-14T08:26:12;24.10;78.50
17364;DHT22;8799;43.594;13.526;2022-09-14T08:28:41;24.10;78.20
17364;DHT22;8799;43.594;13.526;2022-09-14T08:31:10;24.10;77.80
17364;DHT22;8799;43.594;13.526;2022-09-14T08:33:41;24.10;78.00
17364;DHT22;8799;43.594;13.526;2022-09-14T08:36:11;24.10;78.20
17364;DHT22;8799;43.594;13.526;2022-09-14T08:38:39;24.00;78.40
17364;DHT22;8799;43.594;13.526;2022-09-14T08:41:15;24.00;78.80
17364;DHT22;8799;43.594;13.526;2022-09-14T08:43:44;24.00;78.10
17364;DHT22;8799;43.594;13.526;2022-09-14T08:46:19;24.00;78.20
17364;DHT22;8799;43.594;13.526;2022-09-14T08:48:51;24.00;78.50
17364;DHT22;8799;43.594;13.526;2022-09-14T08:51:19;24.00;78.90
17364;DHT22;8799;43.594;13.526;2022-09-14T08:53:49;24.00;79.00
17364;DHT22;8799;43.594;13.526;2022-09-14T08:56:21;24.00;79.40
17364;DHT22;8799;43.594;13.526;2022-09-14T09:01:55;23.90;80.30
17364;DHT22;8799;43.594;13.526;2022-09-14T09:04:37;23.90;80.60
17364;DHT22;8799;43.594;13.526;2022-09-14T09:07:13;23.90;81.20
17364;DHT22;8799;43.594;13.526;2022-09-14T09:09:46;23.90;82.00
17364;DHT22;8799;43.594;13.526;2022-09-14T09:12:17;23.80;82.20
17364;DHT22;8799;43.594;13.526;2022-09-14T09:14:50;23.80;82.40
17364;DHT22;8799;43.594;13.526;2022-09-14T09:17:24;23.80;82.60
17364;DHT22;8799;43.594;13.526;2022-09-14T09:20:02;23.80;83.40
17364;DHT22;8799;43.594;13.526;2022-09-14T09:22:35;23.80;84.30
17364;DHT22;8799;43.594;13.526;2022-09-14T09:25:06;23.90;84.00
17364;DHT22;8799;43.594;13.526;2022-09-14T09:27:37;23.90;83.80
17364;DHT22;8799;43.594;13.526;2022-09-14T09:30:07;23.90;85.00
17364;DHT22;8799;43.594;13.526;2022-09-14T09:32:39;23.90;86.20
17364;DHT22;8799;43.594;13.526;2022-09-14T09:35:12;24.00;86.90
17364;DHT22;8799;43.594;13.526;2022-09-14T09:37:41;23.90;87.60
17364;DHT22;8799;43.594;13.526;2022-09-14T09:40:15;23.90;87.70
17364;DHT22;8799;43.594;13.526;2022-09-14T09:43:03;23.90;87.60
17364;DHT22;8799;43.594;13.526;2022-09-14T09:45:46;24.00;88.60
17364;DHT22;8799;43.594;13.526;2022-09-14T09:48:17;24.00;88.50
17364;DHT22;8799;43.594;13.526;2022-09-14T09:50:49;24.00;88.90
17364;DHT22;8799;43.594;13.526;2022-09-14T09:53:20;23.90;90.00
17364;DHT22;8799;43.594;13.526;2022-09-14T09:55:49;23.90;90.80
17364;DHT22;8799;43.594;13.526;2022-09-14T09:58:21;23.90;92.30
17364;DHT22;8799;43.594;13.526;2022-09-14T10:00:57;23.90;93.80
17364;DHT22;8799;43.594;13.526;2022-09-14T10:03:29;23.90;94.40
17364;DHT22;8799;43.594;13.526;2022-09-14T10:06:05;23.90;95.50
17364;DHT22;8799;43.594;13.526;2022-09-14T10:08:39;24.00;96.10
17364;DHT22;8799;43.594;13.526;2022-09-14T10:11:32;24.00;97.00
17364;DHT22;8799;43.594;13.526;2022-09-14T10:14:01;24.00;97.90
17364;DHT22;8799;43.594;13.526;2022-09-14T10:16:35;24.00;97.90
17364;DHT22;8799;43.594;13.526;2022-09-14T10:19:12;24.00;98.70
17364;DHT22;8799;43.594;13.526;2022-09-14T10:24:57;24.00;98.10
17364;DHT22;8799;43.594;13.526;2022-09-14T10:27:38;24.00;96.80
17364;DHT22;8799;43.594;13.526;2022-09-14T10:30:13;24.00;95.20
17364;DHT22;8799;43.594;13.526;2022-09-14T10:32:46;24.00;94.50
17364;DHT22;8799;43.594;13.526;2022-09-14T10:35:16;24.00;94.00
17364;DHT22;8799;43.594;13.526;2022-09-14T10:38:03;24.00;93.70
17364;DHT22;8799;43.594;13.526;2022-09-14T10:40:36;24.00;93.40
17364;DHT22;8799;43.594;13.526;2022-09-14T10:43:19;24.00;93.20
17364;DHT22;8799;43.594;13.526;2022-09-14T10:45:50;24.00;93.00
17364;DHT22;8799;43.594;13.526;2022-09-14T10:48:45;24.00;92.50
17364;DHT22;8799;43.594;13.526;2022-09-14T10:51:28;24.10;91.70
17364;DHT22;8799;43.594;13.526;2022-09-14T10:54:07;24.10;91.20
17364;DHT22;8799;43.594;13.526;2022-09-14T10:56:51;24.10;91.00
17364;DHT22;8799;43.594;13.526;2022-09-14T10:59:30;24.10;90.70
17364;DHT22;8799;43.594;13.526;2022-09-14T11:02:19;24.10;90.60
17364;DHT22;8799;43.594;13.526;2022-09-14T11:10:42;24.00;89.20
17364;DHT22;8799;43.594;13.526;2022-09-14T11:13:36;24.00;89.00
17364;DHT22;8799;43.594;13.526;2022-09-14T11:19:05;24.00;88.10
17364;DHT22;8799;43.594;13.526;2022-09-14T11:21:41;24.00;87.70
17364;DHT22;8799;43.594;13.526;2022-09-14T11:24:16;24.00;87.10
17364;DHT22;8799;43.594;13.526;2022-09-14T11:26:52;24.10;87.00
17364;DHT22;8799;43.594;13.526;2022-09-14T11:29:26;24.00;86.10
17364;DHT22;8799;43.594;13.526;2022-09-14T11:31:59;24.10;85.90
17364;DHT22;8799;43.594;13.526;2022-09-14T11:34:33;24.10;84.60
17364;DHT22;8799;43.594;13.526;2022-09-14T11:37:07;24.10;84.40
17364;DHT22;8799;43.594;13.526;2022-09-14T11:39:39;24.10;84.60
17364;DHT22;8799;43.594;13.526;2022-09-14T11:42:11;24.10;84.60
17364;DHT22;8799;43.594;13.526;2022-09-14T11:44:42;24.10;83.90
17364;DHT22;8799;43.594;13.526;2022-09-14T11:47:14;24.10;83.20
17364;DHT22;8799;43.594;13.526;2022-09-14T11:49:52;24.10;83.40
17364;DHT22;8799;43.594;13.526;2022-09-14T11:52:23;24.10;81.20
17364;DHT22;8799;43.594;13.526;2022-09-14T11:54:52;24.20;78.50
17364;DHT22;8799;43.594;13.526;2022-09-14T11:57:23;24.30;77.60
17364;DHT22;8799;43.594;13.526;2022-09-14T11:59:54;24.40;78.80
17364;DHT22;8799;43.594;13.526;2022-09-14T12:05:35;24.30;80.60
17364;DHT22;8799;43.594;13.526;2022-09-14T12:08:35;24.30;81.40
17364;DHT22;8799;43.594;13.526;2022-09-14T12:11:30;24.20;81.50
17364;DHT22;8799;43.594;13.526;2022-09-14T12:17:21;24.20;80.10
17364;DHT22;8799;43.594;13.526;2022-09-14T12:19:51;24.20;79.40
17364;DHT22;8799;43.594;13.526;2022-09-14T12:22:30;24.20;79.30
17364;DHT22;8799;43.594;13.526;2022-09-14T12:25:04;24.20;79.60
17364;DHT22;8799;43.594;13.526;2022-09-14T12:27:39;24.20;79.10
17364;DHT22;8799;43.594;13.526;2022-09-14T12:39:24;24.30;78.80
17364;DHT22;8799;43.594;13.526;2022-09-14T12:42:04;24.30;79.00
17364;DHT22;8799;43.594;13.526;2022-09-14T12:44:37;24.30;79.90
17364;DHT22;8799;43.594;13.526;2022-09-14T12:50:26;24.30;81.70
17364;DHT22;8799;43.594;13.526;2022-09-14T12:53:11;24.30;81.40
17364;DHT22;8799;43.594;13.526;2022-09-14T12:56:03;24.30;81.80
17364;DHT22;8799;43.594;13.526;2022-09-14T12:58:41;24.30;82.00
17364;DHT22;8799;43.594;13.526;2022-09-14T13:01:21;24.30;82.20
17364;DHT22;8799;43.594;13.526;2022-09-14T13:03:53;24.30;82.50
17364;DHT22;8799;43.594;13.526;2022-09-14T13:06:23;24.30;84.00
17364;DHT22;8799;43.594;13.526;2022-09-14T13:08:56;24.30;86.30
17364;DHT22;8799;43.594;13.526;2022-09-14T13:11:31;24.30;88.30
17364;DHT22;8799;43.594;13.526;2022-09-14T13:13:59;24.30;89.40
17364;DHT22;8799;43.594;13.526;2022-09-14T13:16:37;24.30;89.70
17364;DHT22;8799;43.594;13.526;2022-09-14T13:19:19;24.30;90.50
17364;DHT22;8799;43.594;13.526;2022-09-14T13:21:48;24.30;90.30
17364;DHT22;8799;43.594;13.526;2022-09-14T13:24:29;24.30;90.70
17364;DHT22;8799;43.594;13.526;2022-09-14T13:27:02;24.30;90.50
17364;DHT22;8799;43.594;13.526;2022-09-14T13:29:31;24.30;90.40
17364;DHT22;8799;43.594;13.526;2022-09-14T13:31:59;24.30;90.40
17364;DHT22;8799;43.594;13.526;2022-09-14T13:34:30;24.30;91.70
17364;DHT22;8799;43.594;13.526;2022-09-14T13:37:00;24.30;91.40
17364;DHT22;8799;43.594;13.526;2022-09-14T13:39:30;24.30;93.20
17364;DHT22;8799;43.594;13.526;2022-09-14T13:42:00;24.30;93.50
17364;DHT22;8799;43.594;13.526;2022-09-14T13:44:31;24.40;92.90
17364;DHT22;8799;43.594;13.526;2022-09-14T13:47:02;24.40;93.00
17364;DHT22;8799;43.594;13.526;2022-09-14T13:49:30;24.40;92.90
17364;DHT22;8799;43.594;13.526;2022-09-14T13:52:18;24.40;93.10
17364;DHT22;8799;43.594;13.526;2022-09-14T13:54:53;24.40;89.20
17364;DHT22;8799;43.594;13.526;2022-09-14T13:57:23;24.60;83.30
17364;DHT22;8799;43.594;13.526;2022-09-14T14:00:16;24.70;81.20
17364;DHT22;8799;43.594;13.526;2022-09-14T14:02:46;25.00;80.10
17364;DHT22;8799;43.594;13.526;2022-09-14T14:05:23;25.00;80.60
17364;DHT22;8799;43.594;13.526;2022-09-14T14:07:53;25.00;81.40
17364;DHT22;8799;43.594;13.526;2022-09-14T14:10:27;25.00;83.80
17364;DHT22;8799;43.594;13.526;2022-09-14T14:12:58;24.90;85.80
17364;DHT22;8799;43.594;13.526;2022-09-14T14:15:36;24.90;85.20
17364;DHT22;8799;43.594;13.526;2022-09-14T14:18:30;24.80;85.50
17364;DHT22;8799;43.594;13.526;2022-09-14T14:21:15;24.70;85.90
17364;DHT22;8799;43.594;13.526;2022-09-14T14:23:44;24.90;85.20
17364;DHT22;8799;43.594;13.526;2022-09-14T14:26:14;25.00;84.30
17364;DHT22;8799;43.594;13.526;2022-09-14T14:28:46;25.10;83.90
17364;DHT22;8799;43.594;13.526;2022-09-14T14:31:19;25.10;83.80
17364;DHT22;8799;43.594;13.526;2022-09-14T14:33:49;25.20;84.00
17364;DHT22;8799;43.594;13.526;2022-09-14T14:36:18;25.30;83.40
17364;DHT22;8799;43.594;13.526;2022-09-14T14:38:46;25.30;83.70
17364;DHT22;8799;43.594;13.526;2022-09-14T14:41:17;25.10;85.00
17364;DHT22;8799;43.594;13.526;2022-09-14T14:43:47;25.10;87.70
17364;DHT22;8799;43.594;13.526;2022-09-14T14:46:16;25.10;87.70
17364;DHT22;8799;43.594;13.526;2022-09-14T14:48:44;25.10;87.30
17364;DHT22;8799;43.594;13.526;2022-09-14T14:51:13;25.10;86.50
17364;DHT22;8799;43.594;13.526;2022-09-14T14:53:41;25.00;88.50
17364;DHT22;8799;43.594;13.526;2022-09-14T14:56:11;25.00;89.00
17364;DHT22;8799;43.594;13.526;2022-09-14T14:58:44;24.90;89.60
17364;DHT22;8799;43.594;13.526;2022-09-14T15:01:13;24.90;88.50
17364;DHT22;8799;43.594;13.526;2022-09-14T15:03:42;24.90;86.70
17364;DHT22;8799;43.594;13.526;2022-09-14T15:06:11;25.00;85.80
17364;DHT22;8799;43.594;13.526;2022-09-14T15:08:40;25.10;85.50
17364;DHT22;8799;43.594;13.526;2022-09-14T15:11:14;25.20;85.30
17364;DHT22;8799;43.594;13.526;2022-09-14T15:13:43;25.20;83.50
17364;DHT22;8799;43.594;13.526;2022-09-14T15:16:13;25.30;82.30
17364;DHT22;8799;43.594;13.526;2022-09-14T15:18:41;25.30;81.70
17364;DHT22;8799;43.594;13.526;2022-09-14T15:21:10;25.40;81.50
17364;DHT22;8799;43.594;13.526;2022-09-14T15:23:38;25.40;81.00
17364;DHT22;8799;43.594;13.526;2022-09-14T15:26:07;25.40;80.90
17364;DHT22;8799;43.594;13.526;2022-09-14T15:28:35;25.30;81.50
17364;DHT22;8799;43.594;13.526;2022-09-14T15:31:04;25.20;82.10
17364;DHT22;8799;43.594;13.526;2022-09-14T15:33:33;25.20;82.50
17364;DHT22;8799;43.594;13.526;2022-09-14T15:36:02;25.20;83.00
17364;DHT22;8799;43.594;13.526;2022-09-14T15:38:30;25.20;83.60
17364;DHT22;8799;43.594;13.526;2022-09-14T15:40:58;25.20;83.70
17364;DHT22;8799;43.594;13.526;2022-09-14T15:43:26;25.20;84.10
17364;DHT22;8799;43.594;13.526;2022-09-14T15:45:54;25.20;85.70
17364;DHT22;8799;43.594;13.526;2022-09-14T15:48:22;25.40;89.20
17364;DHT22;8799;43.594;13.526;2022-09-14T15:50:52;25.40;91.90
17364;DHT22;8799;43.594;13.526;2022-09-14T15:53:22;25.40;94.00
17364;DHT22;8799;43.594;13.526;2022-09-14T15:55:50;25.40;96.40
17364;DHT22;8799;43.594;13.526;2022-09-14T15:58:18;25.40;97.10
17364;DHT22;8799;43.594;13.526;2022-09-14T16:00:46;25.30;97.70
17364;DHT22;8799;43.594;13.526;2022-09-14T16:03:15;25.30;99.40
17364;DHT22;8799;43.594;13.526;2022-09-14T16:05:44;25.20;99.90
17364;DHT22;8799;43.594;13.526;2022-09-14T16:08:14;25.20;99.60
17364;DHT22;8799;43.594;13.526;2022-09-14T16:10:43;25.20;99.40
17364;DHT22;8799;43.594;13.526;2022-09-14T16:13:11;25.20;99.00
17364;DHT22;8799;43.594;13.526;2022-09-14T16:15:40;25.20;98.30
17364;DHT22;8799;43.594;13.526;2022-09-14T16:18:08;25.20;97.90
17364;DHT22;8799;43.594;13.526;2022-09-14T16:20:35;25.10;96.60
17364;DHT22;8799;43.594;13.526;2022-09-14T16:23:03;25.10;96.40
17364;DHT22;8799;43.594;13.526;2022-09-14T16:25:35;25.10;96.00
17364;DHT22;8799;43.594;13.526;2022-09-14T16:28:05;25.10;96.70
17364;DHT22;8799;43.594;13.526;2022-09-14T16:30:33;25.00;97.60
17364;DHT22;8799;43.594;13.526;2022-09-14T16:33:01;25.00;99.20